createdAt,value
2019-04-10T00:03:44.194Z,3.90
2019-04-10T00:06:32.008Z,4.17
2019-04-10T00:09:21.150Z,3.63
2019-04-10T00:12:09.499Z,3.10
2019-04-10T00:14:39.084Z,3.70
2019-04-10T00:17:07.480Z,3.23
2019-04-10T00:19:35.980Z,4.13
2019-04-10T00:22:04.363Z,3.83
2019-04-10T00:27:24.299Z,4.17
2019-04-10T00:29:52.725Z,4.40
2019-04-10T00:32:21.626Z,4.00
2019-04-10T00:34:51.860Z,3.90
2019-04-10T00:37:26.727Z,3.73
2019-04-10T00:39:50.839Z,3.70
2019-04-10T00:42:19.172Z,3.87
2019-04-10T00:44:48.063Z,4.23
2019-04-10T00:47:17.018Z,4.13
2019-04-10T00:49:46.129Z,3.77
2019-04-10T00:52:14.972Z,3.70
2019-04-10T00:54:43.515Z,3.80
2019-04-10T00:57:12.827Z,4.00
2019-04-10T00:59:42.151Z,3.60
2019-04-10T01:02:10.533Z,4.10
2019-04-10T01:04:38.943Z,3.60
2019-04-10T01:07:07.340Z,3.50
2019-04-10T01:09:35.791Z,3.33
2019-04-10T01:12:04.183Z,3.47
2019-04-10T01:14:32.593Z,3.33
2019-04-10T01:17:02.067Z,2.77
2019-04-10T01:19:30.600Z,3.67
2019-04-10T01:21:58.999Z,3.60
2019-04-10T01:24:27.941Z,3.20
2019-04-10T01:26:56.376Z,3.87
2019-04-10T01:29:25.141Z,3.30
2019-04-10T01:31:53.553Z,3.77
2019-04-10T01:34:21.955Z,3.90
2019-04-10T01:36:50.354Z,3.93
2019-04-10T01:39:20.635Z,3.53
2019-04-10T01:41:50.096Z,3.70
2019-04-10T01:44:18.503Z,3.37
2019-04-10T01:46:46.970Z,3.50
2019-04-10T01:49:15.681Z,3.60
2019-04-10T01:51:44.044Z,3.63
2019-04-10T01:54:13.061Z,3.63
2019-04-10T01:56:41.888Z,3.90
2019-04-10T01:59:10.474Z,4.03
2019-04-10T02:01:49.024Z,4.00
2019-04-10T02:04:18.403Z,3.67
2019-04-10T02:06:46.796Z,4.20
2019-04-10T02:09:15.205Z,3.60
2019-04-10T02:11:43.596Z,4.97
2019-04-10T02:14:12.162Z,3.67
2019-04-10T02:16:41.133Z,3.80
2019-04-10T02:19:10.103Z,3.50
2019-04-10T02:21:38.519Z,3.80
2019-04-10T02:24:07.072Z,3.60
2019-04-10T02:26:35.963Z,4.30
2019-04-10T02:29:04.368Z,3.63
2019-04-10T02:31:34.294Z,4.03
2019-04-10T02:34:04.780Z,4.50
2019-04-10T02:36:34.465Z,3.80
2019-04-10T02:39:15.212Z,3.90
2019-04-10T02:41:36.306Z,4.13
2019-04-10T02:44:05.076Z,4.30
2019-04-10T02:46:33.525Z,5.37
2019-04-10T02:49:03.771Z,4.50
2019-04-10T02:51:32.555Z,5.10
2019-04-10T02:54:02.375Z,4.90
2019-04-10T02:56:32.632Z,4.33
2019-04-10T02:59:02.832Z,4.30
2019-04-10T03:01:31.647Z,4.70
2019-04-10T03:04:01.303Z,5.40
2019-04-10T03:06:31.164Z,4.43
2019-04-10T03:09:14.744Z,3.70
2019-04-10T03:11:31.266Z,4.80
2019-04-10T03:14:01.369Z,4.50
2019-04-10T03:16:29.819Z,5.07
2019-04-10T03:18:58.211Z,4.63
2019-04-10T03:21:27.023Z,5.00
2019-04-10T03:23:55.981Z,5.20
2019-04-10T03:26:24.373Z,5.00
2019-04-10T03:28:53.538Z,5.70
2019-04-10T03:31:23.032Z,5.23
2019-04-10T03:33:55.351Z,5.00
2019-04-10T03:36:23.904Z,4.63
2019-04-10T03:38:58.750Z,5.40
2019-04-10T03:41:22.422Z,4.77
2019-04-10T03:43:50.819Z,5.57
2019-04-10T03:46:19.515Z,5.57
2019-04-10T03:48:47.966Z,5.67
2019-04-10T03:51:16.601Z,5.40
2019-04-10T03:53:44.940Z,5.17
2019-04-10T03:56:13.811Z,5.70
2019-04-10T03:58:42.255Z,5.20
2019-04-10T04:01:11.005Z,5.00
2019-04-10T04:03:40.481Z,5.80
2019-04-10T04:06:08.999Z,5.33
2019-04-10T04:08:37.510Z,5.37
2019-04-10T04:11:05.856Z,5.80
2019-04-10T04:13:35.452Z,5.57
2019-04-10T04:16:03.849Z,5.87
2019-04-10T04:18:33.257Z,6.10
2019-04-10T04:21:01.650Z,6.30
2019-04-10T04:23:30.024Z,6.50
2019-04-10T04:25:58.943Z,5.63
2019-04-10T04:28:27.692Z,5.80
2019-04-10T04:30:56.780Z,6.10
2019-04-10T04:33:25.280Z,4.97
2019-04-10T04:35:53.694Z,6.13
2019-04-10T04:38:22.084Z,5.70
2019-04-10T04:40:51.461Z,5.10
2019-04-10T04:43:21.705Z,6.27
2019-04-10T04:45:51.586Z,6.00
2019-04-10T04:48:20.019Z,6.50
2019-04-10T04:50:48.424Z,5.83
2019-04-10T04:53:16.816Z,5.67
2019-04-10T04:55:45.293Z,5.60
2019-04-10T04:58:13.845Z,6.00
2019-04-10T05:00:42.169Z,5.13
2019-04-10T05:03:10.574Z,5.70
2019-04-10T05:05:39.154Z,6.63
2019-04-10T05:08:08.467Z,5.27
2019-04-10T05:10:37.817Z,5.73
2019-04-10T05:13:06.212Z,5.50
2019-04-10T05:15:35.268Z,5.83
2019-04-10T05:18:04.072Z,5.20
2019-04-10T05:20:43.188Z,5.53
2019-04-10T05:23:02.574Z,5.50
2019-04-10T05:25:31.599Z,5.67
2019-04-10T05:27:59.993Z,5.10
2019-04-10T05:30:29.205Z,5.37
2019-04-10T05:32:57.774Z,5.60
2019-04-10T05:35:26.196Z,4.00
2019-04-10T05:37:54.599Z,5.20
2019-04-10T05:40:23.878Z,4.83
2019-04-10T05:42:53.269Z,4.23
2019-04-10T05:45:21.766Z,5.83
2019-04-10T05:47:50.733Z,5.17
2019-04-10T05:50:19.453Z,4.50
2019-04-10T05:52:47.937Z,6.37
2019-04-10T05:55:16.328Z,6.13
2019-04-10T05:57:44.874Z,5.37
2019-04-10T06:00:15.019Z,5.20
2019-04-10T06:02:43.870Z,5.30
2019-04-10T06:05:12.572Z,6.07
2019-04-10T06:07:41.351Z,5.40
2019-04-10T06:10:10.769Z,5.40
2019-04-10T06:12:39.273Z,6.53
2019-04-10T06:15:08.116Z,6.10
2019-04-10T06:17:36.519Z,6.13
2019-04-10T06:20:07.621Z,5.90
2019-04-10T06:22:36.897Z,6.30
2019-04-10T06:25:28.964Z,6.67
2019-04-10T06:27:58.986Z,6.40
2019-04-10T06:30:28.443Z,5.40
2019-04-10T06:33:16.098Z,6.60
2019-04-10T06:35:44.738Z,6.00
2019-04-10T06:38:34.985Z,7.77
2019-04-10T06:41:04.135Z,5.80
2019-04-10T06:43:34.005Z,6.13
2019-04-10T06:46:22.248Z,6.40
2019-04-10T06:48:52.054Z,6.80
2019-04-10T06:51:21.907Z,5.10
2019-04-10T06:54:00.100Z,5.50
2019-04-10T06:56:39.549Z,5.60
2019-04-10T06:59:28.300Z,5.63
2019-04-10T07:05:07.292Z,3.67
2019-04-10T07:07:46.612Z,5.63
2019-04-10T07:10:52.039Z,5.63
2019-04-10T07:13:14.179Z,5.77
2019-04-10T07:18:50.485Z,5.17
2019-04-10T07:21:20.123Z,5.50
2019-04-10T07:23:49.392Z,4.63
2019-04-10T07:26:41.651Z,5.80
2019-04-10T07:29:07.164Z,4.90
2019-04-10T07:31:37.777Z,4.70
2019-04-10T07:34:46.654Z,4.63
2019-04-10T07:37:18.471Z,4.40
2019-04-10T07:39:46.761Z,4.60
2019-04-10T07:45:43.338Z,4.83
2019-04-10T07:48:12.779Z,3.90
2019-04-10T07:50:44.470Z,4.50
2019-04-10T07:53:12.773Z,3.50
2019-04-10T07:55:54.741Z,4.33
2019-04-10T07:58:31.498Z,3.40
2019-04-10T08:01:00.888Z,3.55
2019-04-10T08:03:31.147Z,3.30
2019-04-10T08:09:06.712Z,3.97
2019-04-10T08:14:42.051Z,3.87
2019-04-10T08:22:33.154Z,3.20
2019-04-10T08:25:20.676Z,3.60
2019-04-10T08:27:50.072Z,3.97
2019-04-10T08:30:59.117Z,3.60
2019-04-10T08:33:28.090Z,3.67
2019-04-10T08:38:32.286Z,3.83
2019-04-10T08:41:01.379Z,3.47
2019-04-10T08:43:50.192Z,3.73
2019-04-10T08:46:19.812Z,2.80
2019-04-10T08:48:49.793Z,3.20
2019-04-10T08:51:39.448Z,3.37
2019-04-10T08:59:16.845Z,2.87
2019-04-10T09:02:04.495Z,2.10
2019-04-10T09:04:33.638Z,3.10
2019-04-10T09:07:22.236Z,2.97
2019-04-10T09:09:50.627Z,2.53
2019-04-10T09:12:38.933Z,2.33
2019-04-10T09:18:11.255Z,2.10
2019-04-10T09:20:40.571Z,3.07
2019-04-10T09:23:39.010Z,2.77
2019-04-10T09:26:18.387Z,2.73
2019-04-10T09:29:06.713Z,2.27
2019-04-10T09:31:36.164Z,2.13
2019-04-10T09:34:46.643Z,2.30
2019-04-10T09:37:34.487Z,2.37
2019-04-10T09:40:44.702Z,2.10
2019-04-10T09:43:33.874Z,2.47
2019-04-10T09:46:04.189Z,2.37
2019-04-10T09:48:52.369Z,1.83
2019-04-10T09:51:21.493Z,2.30
2019-04-10T09:53:51.152Z,2.30
2019-04-10T09:56:40.145Z,2.50
2019-04-10T09:59:35.578Z,2.37
2019-04-10T10:01:58.370Z,2.00
2019-04-10T10:04:29.131Z,2.50
2019-04-10T10:06:58.040Z,2.13
2019-04-10T10:09:45.563Z,2.70
2019-04-10T10:12:13.954Z,2.13
2019-04-10T10:14:42.377Z,2.10
2019-04-10T10:17:10.761Z,2.10
2019-04-10T10:19:39.628Z,3.13
2019-04-10T10:22:09.423Z,2.67
2019-04-10T10:24:59.378Z,3.30
2019-04-10T10:27:28.669Z,2.50
2019-04-10T10:30:17.546Z,3.43
2019-04-10T10:35:49.609Z,2.20
2019-04-10T10:38:19.334Z,2.30
2019-04-10T10:41:06.985Z,3.40
2019-04-10T10:43:36.281Z,3.13
2019-04-10T10:46:25.169Z,3.00
2019-04-10T10:51:41.064Z,2.80
2019-04-10T10:54:10.502Z,2.60
2019-04-10T10:56:39.597Z,2.73
2019-04-10T10:59:27.358Z,2.70
2019-04-10T11:01:55.997Z,2.70
2019-04-10T11:04:25.920Z,2.90
2019-04-10T11:06:59.987Z,2.80
2019-04-10T11:12:12.217Z,2.43
2019-04-10T11:15:02.249Z,2.67
2019-04-10T11:23:20.271Z,2.43
2019-04-10T11:26:08.436Z,2.13
2019-04-10T11:28:39.296Z,2.43
2019-04-10T11:31:27.404Z,2.67
2019-04-10T11:33:56.791Z,2.50
2019-04-10T11:36:26.112Z,2.40
2019-04-10T11:42:04.079Z,2.60
2019-04-10T11:45:14.415Z,2.20
2019-04-10T11:47:42.812Z,2.23
2019-04-10T11:50:53.456Z,2.60
2019-04-10T11:54:02.221Z,2.87
2019-04-10T11:56:33.767Z,2.57
2019-04-10T11:59:22.061Z,2.73
2019-04-10T12:01:56.139Z,3.00
2019-04-10T12:04:20.941Z,2.77
2019-04-10T12:07:09.777Z,3.20
2019-04-10T12:12:09.072Z,2.60
2019-04-10T12:14:57.964Z,2.67
2019-04-10T12:17:26.362Z,2.00
2019-04-10T12:26:17.876Z,3.10
2019-04-10T12:28:46.983Z,4.20
2019-04-10T12:31:34.733Z,2.80
2019-04-10T12:34:22.495Z,2.77
2019-04-10T12:37:30.819Z,2.40
2019-04-10T12:40:19.446Z,2.63
2019-04-10T12:46:02.432Z,2.27
2019-04-10T12:48:30.839Z,2.60
2019-04-10T12:51:19.350Z,2.53
2019-04-10T12:54:01.250Z,2.77
2019-04-10T12:59:05.139Z,2.43
2019-04-10T13:01:53.944Z,2.33
2019-04-10T13:07:11.379Z,2.80
2019-04-10T13:09:40.491Z,2.50
2019-04-10T13:12:29.211Z,2.53
2019-04-10T13:14:59.126Z,2.67
2019-04-10T13:17:47.636Z,2.63
2019-04-10T13:20:55.944Z,2.33
2019-04-10T13:23:24.640Z,2.00
2019-04-10T13:25:59.799Z,2.70
2019-04-10T13:28:25.534Z,2.50
2019-04-10T13:30:56.565Z,2.17
2019-04-10T13:33:24.873Z,2.57
2019-04-10T13:36:13.408Z,2.80
2019-04-10T13:38:42.757Z,2.30
2019-04-10T13:41:30.362Z,3.30
2019-04-10T13:43:59.026Z,2.50
2019-04-10T13:46:49.072Z,2.30
2019-04-10T13:49:19.895Z,2.30
2019-04-10T13:51:50.017Z,2.97
2019-04-10T13:54:38.897Z,2.57
2019-04-10T13:57:08.361Z,2.73
2019-04-10T13:59:37.306Z,3.40
2019-04-10T14:02:07.293Z,3.37
2019-04-10T14:04:35.705Z,2.37
2019-04-10T14:07:04.783Z,2.60
2019-04-10T14:09:52.645Z,3.00
2019-04-10T14:12:21.010Z,2.77
2019-04-10T14:14:49.418Z,2.50
2019-04-10T14:17:17.813Z,3.07
2019-04-10T14:22:21.790Z,2.77
2019-04-10T14:24:52.123Z,2.43
2019-04-10T14:33:44.854Z,2.40
2019-04-10T14:36:13.879Z,3.03
2019-04-10T14:39:11.920Z,2.80
2019-04-10T14:41:33.747Z,3.20
2019-04-10T14:52:05.628Z,3.53
2019-04-10T14:54:34.036Z,2.90
2019-04-10T14:57:23.065Z,3.37
2019-04-10T15:00:30.749Z,3.10
2019-04-10T15:03:18.388Z,3.10
2019-04-10T15:06:06.956Z,3.10
2019-04-10T15:08:55.620Z,3.13
2019-04-10T15:11:24.741Z,3.03
2019-04-10T15:14:13.269Z,3.57
2019-04-10T15:17:04.459Z,3.30
2019-04-10T15:19:32.205Z,3.03
2019-04-10T15:22:20.235Z,2.57
2019-04-10T15:24:49.633Z,3.17
2019-04-10T15:27:37.879Z,3.50
2019-04-10T15:30:46.626Z,2.70
2019-04-10T15:33:35.817Z,3.13
2019-04-10T15:36:04.224Z,3.13
2019-04-10T15:38:52.726Z,2.77
2019-04-10T15:41:41.333Z,2.80
2019-04-10T15:44:11.989Z,3.40
2019-04-10T15:46:41.527Z,3.50
2019-04-10T15:49:11.487Z,3.00
2019-04-10T15:51:39.888Z,3.13
2019-04-10T15:54:09.647Z,3.53
2019-04-10T15:56:38.657Z,3.67
2019-04-10T15:59:26.184Z,3.10
2019-04-10T16:02:13.710Z,3.53
2019-04-10T16:07:36.214Z,3.27
2019-04-10T16:10:43.593Z,3.03
2019-04-10T16:19:14.630Z,3.10
2019-04-10T16:22:02.693Z,2.80
2019-04-10T16:24:31.207Z,3.10
2019-04-10T16:27:18.647Z,2.60
2019-04-10T16:29:47.053Z,3.10
2019-04-10T16:32:15.455Z,3.40
2019-04-10T16:35:03.234Z,3.60
2019-04-10T16:37:33.576Z,3.10
2019-04-10T16:40:22.742Z,3.00
2019-04-10T16:43:10.337Z,2.97
2019-04-10T16:45:57.994Z,2.53
2019-04-10T16:48:26.505Z,2.80
2019-04-10T16:50:56.534Z,2.93
2019-04-10T16:53:45.431Z,3.07
2019-04-10T16:56:14.321Z,2.87
2019-04-10T16:59:02.546Z,2.57
2019-04-10T17:01:33.005Z,2.53
2019-04-10T17:04:01.368Z,2.13
2019-04-10T17:06:30.349Z,2.50
2019-04-10T17:08:58.757Z,2.77
2019-04-10T17:11:27.197Z,2.20
2019-04-10T17:14:15.193Z,2.50
2019-04-10T17:16:43.987Z,2.87
2019-04-10T17:19:13.933Z,2.50
2019-04-10T17:21:44.608Z,2.23
2019-04-10T17:27:01.616Z,2.50
2019-04-10T17:29:51.539Z,2.40
2019-04-10T17:32:21.410Z,2.50
2019-04-10T17:38:18.527Z,2.67
2019-04-10T17:41:07.165Z,2.50
2019-04-10T17:43:55.651Z,2.50
2019-04-10T17:46:43.664Z,2.27
2019-04-10T17:49:13.382Z,2.30
2019-04-10T17:52:03.307Z,2.17
2019-04-10T17:54:31.485Z,2.53
2019-04-10T17:57:02.448Z,2.53
2019-04-10T17:59:32.341Z,1.93
2019-04-10T18:02:21.192Z,2.20
2019-04-10T18:04:50.375Z,2.10
2019-04-10T18:07:19.750Z,2.00
2019-04-10T18:09:48.582Z,2.70
2019-04-10T18:12:19.397Z,2.50
2019-04-10T18:17:35.883Z,2.17
2019-04-10T18:20:44.488Z,2.60
2019-04-10T18:23:32.004Z,2.87
2019-04-10T18:26:00.494Z,2.93
2019-04-10T18:29:27.409Z,2.97
2019-04-10T18:31:57.926Z,2.30
2019-04-10T18:34:27.030Z,2.17
2019-04-10T18:37:20.655Z,2.77
2019-04-10T18:39:46.453Z,2.93
2019-04-10T18:42:17.308Z,2.77
2019-04-10T18:47:36.436Z,3.03
2019-04-10T18:53:13.106Z,2.27
2019-04-10T18:56:01.374Z,2.73
2019-04-10T18:58:50.651Z,2.80
2019-04-10T19:01:39.054Z,2.80
2019-04-10T19:04:27.450Z,2.30
2019-04-10T19:07:15.370Z,2.30
2019-04-10T19:10:04.317Z,2.10
2019-04-10T19:12:33.471Z,2.97
2019-04-10T19:15:21.121Z,2.20
2019-04-10T19:17:49.529Z,2.07
2019-04-10T19:20:37.173Z,3.07
2019-04-10T19:25:41.115Z,3.20
2019-04-10T19:28:35.053Z,2.63
2019-04-10T19:31:20.008Z,2.80
2019-04-10T19:34:07.343Z,2.60
2019-04-10T19:36:36.219Z,2.60
2019-04-10T19:39:46.666Z,2.83
2019-04-10T19:42:35.649Z,2.47
2019-04-10T19:45:45.015Z,2.40
2019-04-10T19:50:49.894Z,3.00
2019-04-10T19:55:53.917Z,2.60
2019-04-10T19:58:38.521Z,2.90
2019-04-10T20:01:12.798Z,2.80
2019-04-10T20:03:41.194Z,4.53
2019-04-10T20:06:09.603Z,2.90
2019-04-10T20:11:12.886Z,2.50
2019-04-10T20:16:35.375Z,3.67
2019-04-10T20:21:56.983Z,2.63
2019-04-10T20:24:25.381Z,2.80
2019-04-10T20:29:28.857Z,3.00
2019-04-10T20:32:17.650Z,3.07
2019-04-10T20:37:34.633Z,3.37
2019-04-10T20:43:11.108Z,3.03
2019-04-10T20:45:58.606Z,2.80
2019-04-10T20:48:27.017Z,3.03
2019-04-10T20:51:14.542Z,2.57
2019-04-10T20:54:02.321Z,2.90
2019-04-10T20:56:30.770Z,3.20
2019-04-10T20:58:59.397Z,3.43
2019-04-10T21:01:28.819Z,3.25
2019-04-10T21:03:57.273Z,2.90
2019-04-10T21:06:25.678Z,3.20
2019-04-10T21:11:29.204Z,3.23
2019-04-10T21:14:19.088Z,2.50
2019-04-10T21:19:35.574Z,2.90
2019-04-10T21:24:52.068Z,3.30
2019-04-10T21:27:21.488Z,3.53
2019-04-10T21:30:28.506Z,2.67
2019-04-10T21:33:16.329Z,3.30
2019-04-10T21:35:45.605Z,3.03
2019-04-10T21:38:34.029Z,1.93
2019-04-10T21:41:22.058Z,3.93
2019-04-10T21:43:52.286Z,3.27
2019-04-10T21:46:22.204Z,3.33
2019-04-10T21:48:52.059Z,2.90
2019-04-10T21:51:20.456Z,3.00
2019-04-10T21:54:08.016Z,3.23
2019-04-10T21:56:37.257Z,3.33
2019-04-10T21:59:26.763Z,2.70
2019-04-10T22:01:56.955Z,3.00
2019-04-10T22:07:20.376Z,2.80
2019-04-10T22:10:09.890Z,3.40
2019-04-10T22:12:43.845Z,2.67
2019-04-10T22:20:22.227Z,3.50
2019-04-10T22:23:09.892Z,3.07
2019-04-10T22:25:57.491Z,3.57
2019-04-10T22:31:00.309Z,3.83
2019-04-10T22:33:48.938Z,3.80
2019-04-10T22:36:37.438Z,3.37
2019-04-10T22:39:45.738Z,3.70
2019-04-10T22:42:41.643Z,2.80
2019-04-10T22:45:45.015Z,2.80
2019-04-10T22:48:14.610Z,3.33
2019-04-10T22:51:03.458Z,3.90
2019-04-10T22:54:13.100Z,3.57
2019-04-10T23:00:10.001Z,3.20
2019-04-10T23:02:38.393Z,3.47
2019-04-10T23:08:01.532Z,3.93
2019-04-10T23:10:49.290Z,3.67
2019-04-10T23:13:36.935Z,3.87
2019-04-10T23:16:46.354Z,3.30
2019-04-10T23:19:34.624Z,4.00
2019-04-10T23:22:03.182Z,3.87
2019-04-10T23:24:33.826Z,3.80
2019-04-10T23:27:22.510Z,3.70
2019-04-10T23:32:25.265Z,4.03
2019-04-10T23:35:13.558Z,4.03
2019-04-10T23:38:02.152Z,3.60
2019-04-10T23:40:30.557Z,3.83
2019-04-10T23:43:20.034Z,3.63
2019-04-10T23:48:22.543Z,3.53
2019-04-10T23:50:52.413Z,3.90
2019-04-10T23:53:20.803Z,3.07
2019-04-10T23:55:50.332Z,3.77
2019-04-10T23:58:19.949Z,3.80
